sensor_id;sensor_type;location;lat;lon;timestamp;P1;durP1;ratioP1;P2;durP2;ratioP2
74523;SDS011;63074;44.696;10.358;2022-11-15T00:00:49;20.85;;;11.05;;
74523;SDS011;63074;44.696;10.358;2022-11-15T00:03:17;22.05;;;10.52;;
74523;SDS011;63074;44.696;10.358;2022-11-15T00:05:45;23.50;;;11.88;;
74523;SDS011;63074;44.696;10.358;2022-11-15T00:08:11;21.30;;;10.93;;
74523;SDS011;63074;44.696;10.358;2022-11-15T00:10:38;21.42;;;11.57;;
74523;SDS011;63074;44.696;10.358;2022-11-15T00:13:06;20.98;;;10.75;;
74523;SDS011;63074;44.696;10.358;2022-11-15T00:15:38;21.48;;;10.57;;
74523;SDS011;63074;44.696;10.358;2022-11-15T00:18:06;20.55;;;11.20;;
74523;SDS011;63074;44.696;10.358;2022-11-15T00:20:42;23.85;;;11.77;;
74523;SDS011;63074;44.696;10.358;2022-11-15T00:23:08;23.42;;;11.10;;
74523;SDS011;63074;44.696;10.358;2022-11-15T00:25:35;19.70;;;10.07;;
74523;SDS011;63074;44.696;10.358;2022-11-15T00:28:01;23.85;;;11.93;;
74523;SDS011;63074;44.696;10.358;2022-11-15T00:30:28;21.65;;;10.45;;
74523;SDS011;63074;44.696;10.358;2022-11-15T00:32:54;22.05;;;10.05;;
74523;SDS011;63074;44.696;10.358;2022-11-15T00:35:21;23.60;;;11.55;;
74523;SDS011;63074;44.696;10.358;2022-11-15T00:37:47;19.33;;;9.73;;
74523;SDS011;63074;44.696;10.358;2022-11-15T00:40:14;19.90;;;10.45;;
74523;SDS011;63074;44.696;10.358;2022-11-15T00:42:40;20.65;;;10.90;;
74523;SDS011;63074;44.696;10.358;2022-11-15T00:45:07;19.30;;;9.82;;
74523;SDS011;63074;44.696;10.358;2022-11-15T00:47:33;19.45;;;10.82;;
74523;SDS011;63074;44.696;10.358;2022-11-15T00:49:59;21.02;;;10.43;;
74523;SDS011;63074;44.696;10.358;2022-11-15T00:52:26;19.75;;;9.98;;
74523;SDS011;63074;44.696;10.358;2022-11-15T00:54:52;19.73;;;10.00;;
74523;SDS011;63074;44.696;10.358;2022-11-15T00:57:18;19.90;;;9.75;;
74523;SDS011;63074;44.696;10.358;2022-11-15T00:59:44;20.77;;;10.15;;
74523;SDS011;63074;44.696;10.358;2022-11-15T01:02:10;22.90;;;9.50;;
74523;SDS011;63074;44.696;10.358;2022-11-15T01:04:36;19.88;;;9.45;;
74523;SDS011;63074;44.696;10.358;2022-11-15T01:07:03;18.52;;;9.20;;
74523;SDS011;63074;44.696;10.358;2022-11-15T01:09:29;20.95;;;9.50;;
74523;SDS011;63074;44.696;10.358;2022-11-15T01:11:55;20.38;;;10.40;;
74523;SDS011;63074;44.696;10.358;2022-11-15T01:14:21;18.73;;;9.05;;
74523;SDS011;63074;44.696;10.358;2022-11-15T01:16:47;18.63;;;9.38;;
74523;SDS011;63074;44.696;10.358;2022-11-15T01:19:13;17.30;;;9.15;;
74523;SDS011;63074;44.696;10.358;2022-11-15T01:21:39;15.30;;;7.57;;
74523;SDS011;63074;44.696;10.358;2022-11-15T01:24:06;15.82;;;8.15;;
74523;SDS011;63074;44.696;10.358;2022-11-15T01:26:33;14.60;;;7.10;;
74523;SDS011;63074;44.696;10.358;2022-11-15T01:28:59;13.88;;;7.30;;
74523;SDS011;63074;44.696;10.358;2022-11-15T01:31:25;14.93;;;7.00;;
74523;SDS011;63074;44.696;10.358;2022-11-15T01:33:51;14.63;;;7.28;;
74523;SDS011;63074;44.696;10.358;2022-11-15T01:36:18;15.73;;;7.00;;
74523;SDS011;63074;44.696;10.358;2022-11-15T01:38:55;13.57;;;7.43;;
74523;SDS011;63074;44.696;10.358;2022-11-15T01:41:24;14.50;;;6.70;;
74523;SDS011;63074;44.696;10.358;2022-11-15T01:43:53;12.98;;;7.25;;
74523;SDS011;63074;44.696;10.358;2022-11-15T01:48:54;13.40;;;7.78;;
74523;SDS011;63074;44.696;10.358;2022-11-15T01:51:23;13.93;;;8.27;;
74523;SDS011;63074;44.696;10.358;2022-11-15T01:53:55;15.80;;;8.15;;
74523;SDS011;63074;44.696;10.358;2022-11-15T01:56:24;15.90;;;7.70;;
74523;SDS011;63074;44.696;10.358;2022-11-15T01:58:53;13.98;;;7.70;;
74523;SDS011;63074;44.696;10.358;2022-11-15T02:01:22;18.70;;;8.65;;
74523;SDS011;63074;44.696;10.358;2022-11-15T02:03:52;17.52;;;9.07;;
74523;SDS011;63074;44.696;10.358;2022-11-15T02:06:25;15.52;;;7.47;;
74523;SDS011;63074;44.696;10.358;2022-11-15T02:08:51;16.63;;;8.30;;
74523;SDS011;63074;44.696;10.358;2022-11-15T02:11:19;14.45;;;7.03;;
74523;SDS011;63074;44.696;10.358;2022-11-15T02:13:45;14.68;;;7.93;;
74523;SDS011;63074;44.696;10.358;2022-11-15T02:30:41;19.02;;;9.48;;
74523;SDS011;63074;44.696;10.358;2022-11-15T02:33:41;19.88;;;10.02;;
74523;SDS011;63074;44.696;10.358;2022-11-15T02:39:03;18.08;;;9.35;;
74523;SDS011;63074;44.696;10.358;2022-11-15T02:41:53;17.02;;;9.13;;
74523;SDS011;63074;44.696;10.358;2022-11-15T02:44:31;17.13;;;8.32;;
74523;SDS011;63074;44.696;10.358;2022-11-15T02:47:04;20.35;;;9.13;;
74523;SDS011;63074;44.696;10.358;2022-11-15T02:49:37;15.02;;;8.32;;
74523;SDS011;63074;44.696;10.358;2022-11-15T02:52:07;15.43;;;7.25;;
74523;SDS011;63074;44.696;10.358;2022-11-15T02:54:33;14.20;;;7.40;;
74523;SDS011;63074;44.696;10.358;2022-11-15T02:57:01;15.65;;;7.93;;
74523;SDS011;63074;44.696;10.358;2022-11-15T03:00:17;15.93;;;7.72;;
74523;SDS011;63074;44.696;10.358;2022-11-15T03:12:57;14.57;;;8.45;;
74523;SDS011;63074;44.696;10.358;2022-11-15T03:15:46;18.23;;;9.95;;
74523;SDS011;63074;44.696;10.358;2022-11-15T03:18:28;17.27;;;9.23;;
74523;SDS011;63074;44.696;10.358;2022-11-15T03:21:01;16.60;;;8.77;;
74523;SDS011;63074;44.696;10.358;2022-11-15T03:23:31;14.82;;;9.02;;
74523;SDS011;63074;44.696;10.358;2022-11-15T03:26:00;16.23;;;7.50;;
74523;SDS011;63074;44.696;10.358;2022-11-15T03:28:30;13.88;;;7.63;;
74523;SDS011;63074;44.696;10.358;2022-11-15T03:31:03;15.88;;;8.45;;
74523;SDS011;63074;44.696;10.358;2022-11-15T03:33:51;14.68;;;7.03;;
74523;SDS011;63074;44.696;10.358;2022-11-15T03:36:20;13.63;;;7.47;;
74523;SDS011;63074;44.696;10.358;2022-11-15T03:38:49;12.38;;;7.07;;
74523;SDS011;63074;44.696;10.358;2022-11-15T03:46:46;15.00;;;7.93;;
74523;SDS011;63074;44.696;10.358;2022-11-15T03:49:34;13.10;;;7.25;;
74523;SDS011;63074;44.696;10.358;2022-11-15T03:52:03;15.45;;;6.90;;
74523;SDS011;63074;44.696;10.358;2022-11-15T03:54:30;17.20;;;8.30;;
74523;SDS011;63074;44.696;10.358;2022-11-15T03:56:59;17.02;;;8.02;;
74523;SDS011;63074;44.696;10.358;2022-11-15T03:59:25;15.43;;;7.63;;
74523;SDS011;63074;44.696;10.358;2022-11-15T04:01:52;15.75;;;7.80;;
74523;SDS011;63074;44.696;10.358;2022-11-15T04:04:18;15.02;;;7.43;;
74523;SDS011;63074;44.696;10.358;2022-11-15T04:06:44;13.82;;;7.15;;
74523;SDS011;63074;44.696;10.358;2022-11-15T04:09:10;14.73;;;8.18;;
74523;SDS011;63074;44.696;10.358;2022-11-15T04:11:36;15.43;;;7.72;;
74523;SDS011;63074;44.696;10.358;2022-11-15T04:14:02;14.98;;;7.38;;
74523;SDS011;63074;44.696;10.358;2022-11-15T04:16:29;14.98;;;8.02;;
74523;SDS011;63074;44.696;10.358;2022-11-15T04:18:55;15.57;;;7.57;;
74523;SDS011;63074;44.696;10.358;2022-11-15T04:21:39;16.75;;;8.68;;
74523;SDS011;63074;44.696;10.358;2022-11-15T04:24:24;16.35;;;8.43;;
74523;SDS011;63074;44.696;10.358;2022-11-15T04:26:50;15.63;;;7.88;;
74523;SDS011;63074;44.696;10.358;2022-11-15T04:29:16;15.23;;;8.15;;
74523;SDS011;63074;44.696;10.358;2022-11-15T04:32:02;18.23;;;9.20;;
74523;SDS011;63074;44.696;10.358;2022-11-15T04:34:29;13.70;;;7.97;;
74523;SDS011;63074;44.696;10.358;2022-11-15T04:36:55;15.20;;;8.00;;
74523;SDS011;63074;44.696;10.358;2022-11-15T04:39:37;16.38;;;8.75;;
74523;SDS011;63074;44.696;10.358;2022-11-15T04:44:33;15.55;;;8.20;;
74523;SDS011;63074;44.696;10.358;2022-11-15T04:47:00;15.55;;;8.73;;
74523;SDS011;63074;44.696;10.358;2022-11-15T04:49:26;14.18;;;7.93;;
74523;SDS011;63074;44.696;10.358;2022-11-15T04:51:53;14.73;;;6.68;;
74523;SDS011;63074;44.696;10.358;2022-11-15T04:54:19;16.85;;;8.05;;
74523;SDS011;63074;44.696;10.358;2022-11-15T04:56:45;16.75;;;7.93;;
74523;SDS011;63074;44.696;10.358;2022-11-15T04:59:11;16.98;;;9.10;;
74523;SDS011;63074;44.696;10.358;2022-11-15T05:01:37;14.93;;;8.30;;
74523;SDS011;63074;44.696;10.358;2022-11-15T05:04:04;16.13;;;8.13;;
74523;SDS011;63074;44.696;10.358;2022-11-15T05:06:49;13.55;;;7.10;;
74523;SDS011;63074;44.696;10.358;2022-11-15T05:09:19;14.45;;;6.97;;
74523;SDS011;63074;44.696;10.358;2022-11-15T05:11:46;14.30;;;6.93;;
74523;SDS011;63074;44.696;10.358;2022-11-15T05:14:13;15.45;;;8.15;;
74523;SDS011;63074;44.696;10.358;2022-11-15T05:16:39;17.25;;;8.43;;
74523;SDS011;63074;44.696;10.358;2022-11-15T05:19:05;19.25;;;8.60;;
74523;SDS011;63074;44.696;10.358;2022-11-15T05:21:32;17.48;;;8.45;;
74523;SDS011;63074;44.696;10.358;2022-11-15T05:23:59;20.40;;;10.90;;
74523;SDS011;63074;44.696;10.358;2022-11-15T05:26:25;15.00;;;7.90;;
74523;SDS011;63074;44.696;10.358;2022-11-15T05:28:53;14.95;;;8.07;;
74523;SDS011;63074;44.696;10.358;2022-11-15T05:31:24;13.07;;;6.57;;
74523;SDS011;63074;44.696;10.358;2022-11-15T05:33:51;18.00;;;8.40;;
74523;SDS011;63074;44.696;10.358;2022-11-15T05:36:21;18.40;;;9.65;;
74523;SDS011;63074;44.696;10.358;2022-11-15T05:38:48;16.90;;;8.18;;
74523;SDS011;63074;44.696;10.358;2022-11-15T05:41:15;15.25;;;7.95;;
74523;SDS011;63074;44.696;10.358;2022-11-15T05:43:45;15.50;;;8.30;;
74523;SDS011;63074;44.696;10.358;2022-11-15T05:46:13;16.77;;;7.68;;
74523;SDS011;63074;44.696;10.358;2022-11-15T05:48:40;15.45;;;8.13;;
74523;SDS011;63074;44.696;10.358;2022-11-15T05:51:11;17.50;;;8.27;;
74523;SDS011;63074;44.696;10.358;2022-11-15T05:56:06;16.23;;;8.20;;
74523;SDS011;63074;44.696;10.358;2022-11-15T05:58:34;16.33;;;8.35;;
74523;SDS011;63074;44.696;10.358;2022-11-15T06:01:01;16.75;;;9.35;;
74523;SDS011;63074;44.696;10.358;2022-11-15T06:03:27;17.63;;;8.13;;
74523;SDS011;63074;44.696;10.358;2022-11-15T06:05:53;17.20;;;8.48;;
74523;SDS011;63074;44.696;10.358;2022-11-15T06:08:21;16.70;;;8.50;;
74523;SDS011;63074;44.696;10.358;2022-11-15T06:10:47;16.05;;;9.43;;
74523;SDS011;63074;44.696;10.358;2022-11-15T06:13:16;17.90;;;9.15;;
74523;SDS011;63074;44.696;10.358;2022-11-15T06:15:45;16.30;;;7.88;;
74523;SDS011;63074;44.696;10.358;2022-11-15T06:18:11;17.83;;;8.93;;
74523;SDS011;63074;44.696;10.358;2022-11-15T06:20:37;17.23;;;9.07;;
74523;SDS011;63074;44.696;10.358;2022-11-15T06:23:04;14.27;;;7.80;;
74523;SDS011;63074;44.696;10.358;2022-11-15T06:25:30;17.55;;;8.43;;
74523;SDS011;63074;44.696;10.358;2022-11-15T06:27:58;17.27;;;8.10;;
74523;SDS011;63074;44.696;10.358;2022-11-15T06:30:25;18.00;;;7.70;;
74523;SDS011;63074;44.696;10.358;2022-11-15T06:32:58;13.75;;;7.53;;
74523;SDS011;63074;44.696;10.358;2022-11-15T06:35:28;17.05;;;8.43;;
74523;SDS011;63074;44.696;10.358;2022-11-15T06:37:55;13.48;;;7.00;;
74523;SDS011;63074;44.696;10.358;2022-11-15T06:40:26;14.40;;;7.03;;
74523;SDS011;63074;44.696;10.358;2022-11-15T06:42:56;15.63;;;8.07;;
74523;SDS011;63074;44.696;10.358;2022-11-15T06:45:24;15.75;;;8.48;;
74523;SDS011;63074;44.696;10.358;2022-11-15T06:47:50;13.80;;;7.60;;
74523;SDS011;63074;44.696;10.358;2022-11-15T06:50:17;12.68;;;7.47;;
74523;SDS011;63074;44.696;10.358;2022-11-15T06:52:43;14.88;;;7.28;;
74523;SDS011;63074;44.696;10.358;2022-11-15T06:55:09;19.88;;;9.90;;
74523;SDS011;63074;44.696;10.358;2022-11-15T06:57:35;32.42;;;15.23;;
74523;SDS011;63074;44.696;10.358;2022-11-15T07:00:05;36.22;;;18.70;;
74523;SDS011;63074;44.696;10.358;2022-11-15T07:02:31;27.13;;;16.65;;
74523;SDS011;63074;44.696;10.358;2022-11-15T07:04:57;21.05;;;10.88;;
74523;SDS011;63074;44.696;10.358;2022-11-15T07:07:24;23.13;;;11.65;;
74523;SDS011;63074;44.696;10.358;2022-11-15T07:09:50;16.50;;;9.13;;
74523;SDS011;63074;44.696;10.358;2022-11-15T07:12:16;16.23;;;9.60;;
74523;SDS011;63074;44.696;10.358;2022-11-15T07:14:42;16.58;;;8.30;;
74523;SDS011;63074;44.696;10.358;2022-11-15T07:17:08;14.52;;;7.93;;
74523;SDS011;63074;44.696;10.358;2022-11-15T07:19:34;16.70;;;9.70;;
74523;SDS011;63074;44.696;10.358;2022-11-15T07:22:01;16.23;;;8.23;;
74523;SDS011;63074;44.696;10.358;2022-11-15T07:24:27;15.80;;;9.32;;
74523;SDS011;63074;44.696;10.358;2022-11-15T07:26:53;15.68;;;8.65;;
74523;SDS011;63074;44.696;10.358;2022-11-15T07:29:19;14.98;;;7.80;;
74523;SDS011;63074;44.696;10.358;2022-11-15T07:31:45;17.15;;;9.00;;
74523;SDS011;63074;44.696;10.358;2022-11-15T07:34:11;15.48;;;8.40;;
74523;SDS011;63074;44.696;10.358;2022-11-15T07:36:37;15.95;;;9.05;;
74523;SDS011;63074;44.696;10.358;2022-11-15T07:39:04;16.30;;;8.82;;
74523;SDS011;63074;44.696;10.358;2022-11-15T07:41:30;16.35;;;9.52;;
74523;SDS011;63074;44.696;10.358;2022-11-15T07:43:56;17.67;;;10.10;;
74523;SDS011;63074;44.696;10.358;2022-11-15T07:46:22;17.42;;;8.80;;
74523;SDS011;63074;44.696;10.358;2022-11-15T07:48:48;16.63;;;8.70;;
74523;SDS011;63074;44.696;10.358;2022-11-15T07:51:15;16.52;;;11.15;;
74523;SDS011;63074;44.696;10.358;2022-11-15T07:53:42;21.08;;;11.65;;
74523;SDS011;63074;44.696;10.358;2022-11-15T07:56:09;21.35;;;11.23;;
74523;SDS011;63074;44.696;10.358;2022-11-15T07:58:38;22.15;;;11.57;;
74523;SDS011;63074;44.696;10.358;2022-11-15T08:01:05;20.52;;;10.40;;
74523;SDS011;63074;44.696;10.358;2022-11-15T08:03:33;19.33;;;9.80;;
74523;SDS011;63074;44.696;10.358;2022-11-15T08:06:00;20.92;;;10.57;;
74523;SDS011;63074;44.696;10.358;2022-11-15T08:08:26;20.42;;;10.57;;
74523;SDS011;63074;44.696;10.358;2022-11-15T08:10:53;17.08;;;9.10;;
74523;SDS011;63074;44.696;10.358;2022-11-15T08:13:19;18.02;;;9.77;;
74523;SDS011;63074;44.696;10.358;2022-11-15T08:15:46;21.00;;;10.07;;
74523;SDS011;63074;44.696;10.358;2022-11-15T08:18:13;26.52;;;10.63;;
74523;SDS011;63074;44.696;10.358;2022-11-15T08:20:41;18.02;;;9.38;;
74523;SDS011;63074;44.696;10.358;2022-11-15T08:23:09;19.50;;;10.80;;
74523;SDS011;63074;44.696;10.358;2022-11-15T08:25:37;20.55;;;10.77;;
74523;SDS011;63074;44.696;10.358;2022-11-15T08:28:05;19.10;;;10.18;;
74523;SDS011;63074;44.696;10.358;2022-11-15T08:30:37;20.45;;;9.98;;
74523;SDS011;63074;44.696;10.358;2022-11-15T08:33:09;20.88;;;10.93;;
74523;SDS011;63074;44.696;10.358;2022-11-15T08:35:37;20.52;;;10.20;;
74523;SDS011;63074;44.696;10.358;2022-11-15T08:38:04;20.58;;;9.73;;
74523;SDS011;63074;44.696;10.358;2022-11-15T08:40:30;22.98;;;11.70;;
74523;SDS011;63074;44.696;10.358;2022-11-15T08:42:56;22.00;;;11.02;;
74523;SDS011;63074;44.696;10.358;2022-11-15T08:45:23;21.13;;;10.77;;
74523;SDS011;63074;44.696;10.358;2022-11-15T08:47:49;22.63;;;10.13;;
74523;SDS011;63074;44.696;10.358;2022-11-15T08:50:16;21.42;;;11.48;;
74523;SDS011;63074;44.696;10.358;2022-11-15T08:52:42;21.55;;;11.15;;
74523;SDS011;63074;44.696;10.358;2022-11-15T08:55:08;22.40;;;11.77;;
74523;SDS011;63074;44.696;10.358;2022-11-15T08:57:34;21.38;;;11.57;;
74523;SDS011;63074;44.696;10.358;2022-11-15T09:00:00;25.48;;;12.05;;
74523;SDS011;63074;44.696;10.358;2022-11-15T09:02:27;26.13;;;11.98;;
74523;SDS011;63074;44.696;10.358;2022-11-15T09:04:54;26.63;;;13.55;;
74523;SDS011;63074;44.696;10.358;2022-11-15T09:07:20;26.88;;;13.80;;
74523;SDS011;63074;44.696;10.358;2022-11-15T09:09:46;32.65;;;15.20;;
74523;SDS011;63074;44.696;10.358;2022-11-15T09:12:12;31.08;;;15.60;;
74523;SDS011;63074;44.696;10.358;2022-11-15T09:14:38;29.67;;;13.63;;
74523;SDS011;63074;44.696;10.358;2022-11-15T09:17:07;25.13;;;12.60;;
74523;SDS011;63074;44.696;10.358;2022-11-15T09:19:34;25.20;;;12.05;;
74523;SDS011;63074;44.696;10.358;2022-11-15T09:22:00;26.38;;;12.63;;
74523;SDS011;63074;44.696;10.358;2022-11-15T09:24:26;26.50;;;13.07;;
74523;SDS011;63074;44.696;10.358;2022-11-15T09:26:52;28.35;;;13.07;;
74523;SDS011;63074;44.696;10.358;2022-11-15T09:29:19;29.02;;;14.45;;
74523;SDS011;63074;44.696;10.358;2022-11-15T09:31:45;27.92;;;13.60;;
74523;SDS011;63074;44.696;10.358;2022-11-15T09:34:11;26.15;;;13.82;;
74523;SDS011;63074;44.696;10.358;2022-11-15T09:36:38;29.17;;;13.55;;
74523;SDS011;63074;44.696;10.358;2022-11-15T09:39:04;31.52;;;14.32;;
74523;SDS011;63074;44.696;10.358;2022-11-15T09:41:53;29.88;;;14.07;;
74523;SDS011;63074;44.696;10.358;2022-11-15T09:46:59;31.00;;;15.05;;
74523;SDS011;63074;44.696;10.358;2022-11-15T09:49:41;37.60;;;16.27;;
74523;SDS011;63074;44.696;10.358;2022-11-15T09:52:08;35.30;;;14.93;;
74523;SDS011;63074;44.696;10.358;2022-11-15T09:54:37;29.65;;;15.90;;
74523;SDS011;63074;44.696;10.358;2022-11-15T09:57:14;33.20;;;16.08;;
74523;SDS011;63074;44.696;10.358;2022-11-15T10:05:31;34.15;;;17.00;;
74523;SDS011;63074;44.696;10.358;2022-11-15T10:10:46;36.92;;;17.45;;
74523;SDS011;63074;44.696;10.358;2022-11-15T10:13:25;35.10;;;18.38;;
74523;SDS011;63074;44.696;10.358;2022-11-15T10:15:59;37.05;;;17.98;;
74523;SDS011;63074;44.696;10.358;2022-11-15T10:18:34;38.80;;;17.92;;
74523;SDS011;63074;44.696;10.358;2022-11-15T10:21:15;33.72;;;16.58;;
74523;SDS011;63074;44.696;10.358;2022-11-15T10:23:45;40.92;;;18.77;;
74523;SDS011;63074;44.696;10.358;2022-11-15T10:26:12;36.58;;;16.45;;
74523;SDS011;63074;44.696;10.358;2022-11-15T10:28:41;37.03;;;18.77;;
74523;SDS011;63074;44.696;10.358;2022-11-15T10:31:24;40.67;;;19.15;;
74523;SDS011;63074;44.696;10.358;2022-11-15T10:36:57;38.92;;;17.83;;
74523;SDS011;63074;44.696;10.358;2022-11-15T10:39:25;39.13;;;17.50;;
74523;SDS011;63074;44.696;10.358;2022-11-15T10:41:52;38.97;;;17.88;;
74523;SDS011;63074;44.696;10.358;2022-11-15T10:49:30;38.28;;;18.13;;
74523;SDS011;63074;44.696;10.358;2022-11-15T10:57:32;38.83;;;18.83;;
74523;SDS011;63074;44.696;10.358;2022-11-15T11:00:05;39.13;;;19.38;;
74523;SDS011;63074;44.696;10.358;2022-11-15T11:05:40;41.35;;;18.92;;
74523;SDS011;63074;44.696;10.358;2022-11-15T11:10:55;45.13;;;20.88;;
74523;SDS011;63074;44.696;10.358;2022-11-15T11:16:36;43.63;;;20.98;;
74523;SDS011;63074;44.696;10.358;2022-11-15T11:22:09;42.55;;;19.75;;
74523;SDS011;63074;44.696;10.358;2022-11-15T11:24:36;40.83;;;20.05;;
74523;SDS011;63074;44.696;10.358;2022-11-15T11:41:24;46.65;;;20.63;;
74523;SDS011;63074;44.696;10.358;2022-11-15T11:44:10;44.50;;;20.27;;
74523;SDS011;63074;44.696;10.358;2022-11-15T11:46:48;44.15;;;19.88;;
74523;SDS011;63074;44.696;10.358;2022-11-15T11:49:29;46.38;;;22.35;;
74523;SDS011;63074;44.696;10.358;2022-11-15T11:57:35;44.63;;;20.02;;
74523;SDS011;63074;44.696;10.358;2022-11-15T12:00:15;48.90;;;19.52;;
74523;SDS011;63074;44.696;10.358;2022-11-15T12:05:51;50.38;;;21.98;;
74523;SDS011;63074;44.696;10.358;2022-11-15T12:08:25;47.13;;;20.23;;
74523;SDS011;63074;44.696;10.358;2022-11-15T12:11:29;42.83;;;19.02;;
74523;SDS011;63074;44.696;10.358;2022-11-15T12:14:11;46.65;;;20.67;;
74523;SDS011;63074;44.696;10.358;2022-11-15T12:16:51;41.83;;;18.35;;
74523;SDS011;63074;44.696;10.358;2022-11-15T12:19:18;49.42;;;22.38;;
74523;SDS011;63074;44.696;10.358;2022-11-15T12:21:49;49.40;;;21.65;;
74523;SDS011;63074;44.696;10.358;2022-11-15T12:24:30;47.20;;;21.10;;
74523;SDS011;63074;44.696;10.358;2022-11-15T12:29:59;45.05;;;19.42;;
74523;SDS011;63074;44.696;10.358;2022-11-15T12:32:30;47.28;;;20.45;;
74523;SDS011;63074;44.696;10.358;2022-11-15T12:35:00;48.70;;;21.00;;
74523;SDS011;63074;44.696;10.358;2022-11-15T12:37:34;47.42;;;20.38;;
74523;SDS011;63074;44.696;10.358;2022-11-15T12:42:39;40.10;;;18.70;;
74523;SDS011;63074;44.696;10.358;2022-11-15T12:45:26;47.57;;;19.33;;
74523;SDS011;63074;44.696;10.358;2022-11-15T12:48:44;49.70;;;20.13;;
74523;SDS011;63074;44.696;10.358;2022-11-15T12:51:00;48.70;;;20.70;;
74523;SDS011;63074;44.696;10.358;2022-11-15T12:53:28;47.60;;;21.42;;
74523;SDS011;63074;44.696;10.358;2022-11-15T13:06:44;43.38;;;19.27;;
74523;SDS011;63074;44.696;10.358;2022-11-15T13:11:59;45.45;;;19.60;;
74523;SDS011;63074;44.696;10.358;2022-11-15T13:17:03;47.15;;;20.00;;
74523;SDS011;63074;44.696;10.358;2022-11-15T13:22:23;41.38;;;17.85;;
74523;SDS011;63074;44.696;10.358;2022-11-15T13:25:14;43.33;;;19.08;;
74523;SDS011;63074;44.696;10.358;2022-11-15T13:27:46;44.53;;;19.70;;
74523;SDS011;63074;44.696;10.358;2022-11-15T13:30:15;39.28;;;17.85;;
74523;SDS011;63074;44.696;10.358;2022-11-15T13:32:46;42.88;;;17.63;;
74523;SDS011;63074;44.696;10.358;2022-11-15T13:35:47;43.75;;;19.60;;
74523;SDS011;63074;44.696;10.358;2022-11-15T13:38:11;47.83;;;19.63;;
74523;SDS011;63074;44.696;10.358;2022-11-15T13:40:48;45.00;;;18.63;;
74523;SDS011;63074;44.696;10.358;2022-11-15T13:46:10;38.92;;;18.70;;
74523;SDS011;63074;44.696;10.358;2022-11-15T13:48:58;39.15;;;18.30;;
74523;SDS011;63074;44.696;10.358;2022-11-15T13:54:08;41.45;;;18.15;;
74523;SDS011;63074;44.696;10.358;2022-11-15T13:56:49;40.53;;;17.38;;
74523;SDS011;63074;44.696;10.358;2022-11-15T14:02:20;38.83;;;18.67;;
74523;SDS011;63074;44.696;10.358;2022-11-15T14:05:17;38.85;;;18.33;;
74523;SDS011;63074;44.696;10.358;2022-11-15T14:07:57;37.88;;;17.15;;
74523;SDS011;63074;44.696;10.358;2022-11-15T14:10:30;42.55;;;17.50;;
74523;SDS011;63074;44.696;10.358;2022-11-15T14:12:58;41.22;;;17.17;;
74523;SDS011;63074;44.696;10.358;2022-11-15T14:17:54;39.15;;;17.38;;
74523;SDS011;63074;44.696;10.358;2022-11-15T14:20:26;41.85;;;17.25;;
74523;SDS011;63074;44.696;10.358;2022-11-15T14:23:38;39.33;;;16.58;;
74523;SDS011;63074;44.696;10.358;2022-11-15T14:25:53;34.88;;;16.25;;
74523;SDS011;63074;44.696;10.358;2022-11-15T14:30:53;38.90;;;16.27;;
74523;SDS011;63074;44.696;10.358;2022-11-15T14:33:22;32.50;;;14.30;;
74523;SDS011;63074;44.696;10.358;2022-11-15T14:35:50;33.72;;;16.25;;
74523;SDS011;63074;44.696;10.358;2022-11-15T14:38:17;35.22;;;14.85;;
74523;SDS011;63074;44.696;10.358;2022-11-15T14:40:43;36.42;;;14.95;;
74523;SDS011;63074;44.696;10.358;2022-11-15T14:43:10;39.20;;;16.80;;
74523;SDS011;63074;44.696;10.358;2022-11-15T14:45:37;38.50;;;15.93;;
74523;SDS011;63074;44.696;10.358;2022-11-15T14:48:04;38.20;;;17.80;;
74523;SDS011;63074;44.696;10.358;2022-11-15T14:50:31;36.63;;;15.75;;
74523;SDS011;63074;44.696;10.358;2022-11-15T14:52:58;36.10;;;15.02;;
74523;SDS011;63074;44.696;10.358;2022-11-15T14:55:29;38.75;;;16.75;;
74523;SDS011;63074;44.696;10.358;2022-11-15T14:57:59;36.55;;;16.00;;
74523;SDS011;63074;44.696;10.358;2022-11-15T15:00:28;36.22;;;16.50;;
74523;SDS011;63074;44.696;10.358;2022-11-15T15:02:55;41.13;;;15.98;;
74523;SDS011;63074;44.696;10.358;2022-11-15T15:05:27;36.17;;;16.33;;
74523;SDS011;63074;44.696;10.358;2022-11-15T15:07:57;38.53;;;17.30;;
74523;SDS011;63074;44.696;10.358;2022-11-15T15:10:24;38.00;;;15.70;;
74523;SDS011;63074;44.696;10.358;2022-11-15T15:12:55;36.67;;;16.92;;
74523;SDS011;63074;44.696;10.358;2022-11-15T15:15:23;42.10;;;17.77;;
74523;SDS011;63074;44.696;10.358;2022-11-15T15:17:51;40.67;;;17.65;;
74523;SDS011;63074;44.696;10.358;2022-11-15T15:20:17;38.08;;;15.68;;
74523;SDS011;63074;44.696;10.358;2022-11-15T15:22:43;39.35;;;16.60;;
74523;SDS011;63074;44.696;10.358;2022-11-15T15:27:59;34.67;;;16.70;;
74523;SDS011;63074;44.696;10.358;2022-11-15T15:30:27;34.72;;;14.88;;
74523;SDS011;63074;44.696;10.358;2022-11-15T15:32:55;26.77;;;13.15;;
74523;SDS011;63074;44.696;10.358;2022-11-15T15:35:22;28.98;;;13.65;;
74523;SDS011;63074;44.696;10.358;2022-11-15T15:37:48;28.88;;;13.13;;
74523;SDS011;63074;44.696;10.358;2022-11-15T15:40:16;32.65;;;14.05;;
74523;SDS011;63074;44.696;10.358;2022-11-15T15:42:47;28.77;;;13.70;;
74523;SDS011;63074;44.696;10.358;2022-11-15T15:45:14;33.03;;;15.23;;
74523;SDS011;63074;44.696;10.358;2022-11-15T15:47:41;30.98;;;14.77;;
74523;SDS011;63074;44.696;10.358;2022-11-15T15:50:14;32.90;;;14.73;;
74523;SDS011;63074;44.696;10.358;2022-11-15T15:52:47;29.63;;;14.00;;
74523;SDS011;63074;44.696;10.358;2022-11-15T15:55:15;31.75;;;14.20;;
74523;SDS011;63074;44.696;10.358;2022-11-15T15:57:41;28.90;;;14.75;;
74523;SDS011;63074;44.696;10.358;2022-11-15T16:00:08;31.67;;;14.43;;
74523;SDS011;63074;44.696;10.358;2022-11-15T16:02:35;31.70;;;15.57;;
74523;SDS011;63074;44.696;10.358;2022-11-15T16:05:01;33.33;;;14.93;;
74523;SDS011;63074;44.696;10.358;2022-11-15T16:07:27;34.95;;;15.95;;
74523;SDS011;63074;44.696;10.358;2022-11-15T16:09:54;32.17;;;14.73;;
74523;SDS011;63074;44.696;10.358;2022-11-15T16:12:31;35.15;;;15.98;;
74523;SDS011;63074;44.696;10.358;2022-11-15T16:15:01;35.63;;;15.57;;
74523;SDS011;63074;44.696;10.358;2022-11-15T16:17:32;30.83;;;14.95;;
74523;SDS011;63074;44.696;10.358;2022-11-15T16:20:03;31.90;;;15.52;;
74523;SDS011;63074;44.696;10.358;2022-11-15T16:22:30;34.03;;;16.00;;
74523;SDS011;63074;44.696;10.358;2022-11-15T16:24:58;33.83;;;15.90;;
74523;SDS011;63074;44.696;10.358;2022-11-15T16:27:25;35.95;;;17.23;;
74523;SDS011;63074;44.696;10.358;2022-11-15T16:29:51;33.90;;;16.50;;
74523;SDS011;63074;44.696;10.358;2022-11-15T16:32:17;35.15;;;16.05;;
74523;SDS011;63074;44.696;10.358;2022-11-15T16:34:43;34.13;;;15.43;;
74523;SDS011;63074;44.696;10.358;2022-11-15T16:37:21;33.25;;;15.88;;
74523;SDS011;63074;44.696;10.358;2022-11-15T16:39:48;35.80;;;18.45;;
74523;SDS011;63074;44.696;10.358;2022-11-15T16:42:15;33.08;;;17.60;;
74523;SDS011;63074;44.696;10.358;2022-11-15T16:44:41;32.10;;;16.60;;
74523;SDS011;63074;44.696;10.358;2022-11-15T16:47:18;38.55;;;21.05;;
74523;SDS011;63074;44.696;10.358;2022-11-15T16:49:45;37.50;;;21.42;;